x

Boston 16 Nm East Of Boston, Ma (44013) Wave Buoy

1:50 - Sat 21st Jan 2017 All times are EST. -5 hours from GMT.

  • Sig Wave height 3.6ft
  • Swell Direction
  • Peak Period 11s
  • Average Period 9s
  • Wind
    2mph, 4mph gusts
  • Sea Temp 44°f
  • Ar Temp 46°f
  • Sea Pressure 1006.2mb
  • Boston 16 Nm East Of Boston, Ma
  • Boston 16 Nm East Of Boston, Ma

More Historic Weather Station data

Upgrade to MSW Pro to gain access to the past 30 days of data for over 8000 Wavebouys and Weather Stations around the globe.

Join Pro

Comparision Forecast

View Surf forecast
   
Sáb 01/21 1:50 3.5ft 11s 9s 2 4 mph 1006.2mb 44f 46f
12:50 3.5ft 11s 9s 7 9 mph 1006.6mb 44f 44f
11:50 3.5ft 11s 8s 9 11 mph 1007.9mb 44f 43f
10:50 3.5ft 10s 8s 9 11 mph 1009.1mb 44f 42f
9:50 3.5ft 11s 8s 9
mph
1009.5mb 44f 42f
8:50 3ft 11s 7s 11 13 mph 1009.6mb 44f 42f
7:50 3.5ft 12s 7s 13 16 mph 1009.6mb 44f 41f
6:50 3.5ft 11s 8s 13 16 mph 1009.2mb 44f 41f
5:50 3ft 10s 8s 11 13 mph 1010.2mb 44f 41f
4:50 2.5ft 10s 7s 7 9 mph 1010.7mb 45f 39f
3:50 2.5ft 11s 7s 9 11 mph 1011.1mb 44f 39f
2:50 3.5ft 10s 7s 9 11 mph 1011.5mb 44f 39f
1:50 3ft 10s 6s 13 16 mph 1012.2mb 44f 39f
12:50 3ft 11s 7s 11 13 mph 1012.1mb 44f 40f
Sex 01/20 11:50 2.5ft 11s 7s 11 13 mph 1012.4mb 44f 40f
10:50 3ft 10s 7s 9 11 mph 1013mb 44f 41f
9:50 3ft 8s 7s 9 11 mph 1013.1mb 44f 41f
8:50 3ft 9s 7s 9 11 mph 1013.3mb 44f 41f
7:50 3.5ft 9s 7s 11 13 mph 1013.4mb 44f 41f
6:50 3.5ft 10s 7s 9 11 mph 1013.6mb 44f 42f
5:50 3ft 11s 7s 9
mph
1013.2mb 44f 41f
4:50 3ft 9s 6s 9 11 mph 1013.2mb 44f 41f
3:50 3.5ft 10s 6s 7
mph
1013.8mb 44f 41f
2:50 3.5ft 11s 7s 4 9 mph 1013.9mb 44f 41f
1:50 3.5ft 11s 6s 4 7 mph 1014.4mb 44f 41f
12:50 4ft 11s 7s 4 7 mph 1014.5mb 44f 41f
11:50 3.5ft 11s 7s 2 4 mph 1015.4mb 44f 41f
10:50 4.5ft 10s 7s 7 9 mph 1016.2mb 44f 41f
9:50 4ft 9s 7s 4
mph
1016.3mb 44f 41f
8:50 4.5ft 9s 7s 4 7 mph 1016mb 44f 41f
7:50 4.5ft 11s 7s 2 4 mph 1015.4mb 44f 41f
6:50 4.5ft 10s 7s 4 9 mph 1015.3mb 44f 41f
5:50 4.5ft 11s 7s 7 11 mph 1015.4mb 44f 39f
4:50 4ft 11s 6s 9 11 mph 1015.3mb 44f 42f
3:50 4.5ft 10s 7s 7 11 mph 1015mb 44f 42f
2:50 4.5ft 9s 6s 11 13 mph 1014.7mb 44f 40f
1:50 4.5ft 9s 6s 11 13 mph 1014.8mb 44f 41f
12:50 4.5ft 11s 6s 18 22 mph 1014.1mb 44f 40f
Qui 01/19 11:50 5ft 11s 6s 16 20 mph 1015.3mb 44f 40f
10:50 4.5ft 10s 6s 18 20 mph 1015.9mb 44f 41f
9:50 4.5ft 10s 6s 18 22 mph 1015.8mb 44f 42f
8:50 5ft 8s 7s 16 18 mph 1015.4mb 44f 42f
7:50 5ft 10s 7s 16 20 mph 1014.7mb 44f 43f
6:50 5ft 10s 7s 13 18 mph 1014.5mb 44f 43f
5:50 4ft 9s 6s 11 13 mph 1013.5mb 44f 43f
4:50 4.5ft 8s 6s 11 13 mph 1013mb 45f 43f
3:50 4.5ft 8s 6s 20 25 mph 1012.8mb 45f 43f
2:50 4.5ft 10s 7s 16 20 mph 1012.7mb 45f 43f
1:50 5ft 8s 7s 11 13 mph 1012.8mb 45f 42f
12:50 5ft 10s 7s 9 11 mph 1013.4mb 45f 40f
11:50 5ft 9s 7s 7 11 mph 1014.1mb 45f 38f
10:50 5ft 8s 7s 7 9 mph 1015.3mb 45f 37f
9:50 6ft 9s 7s 4 7 mph 1015.7mb 44f 38f
8:50 5.5ft 8s 7s 4 7 mph 1015.7mb 44f 36f
7:50 6ft 8s 7s 4 7 mph 1015.5mb 44f 36f
6:50 6ft 8s 7s 4 7 mph 1015.3mb 45f 35f
5:50 6ft 8s 7s 7 9 mph 1015.3mb 45f 35f
4:50 7ft 8s 7s 9 11 mph 1015mb 45f 35f
3:50 6ft 9s 6s 11 13 mph 1014.8mb 45f 34f
2:50 7ft 8s 7s 16 18 mph 1015mb 45f 37f
1:50 7ft 8s 6s 13 18 mph 1014.8mb 45f 37f
12:50 7ft 9s 6s 18 20 mph 1014.9mb 45f 37f
Qua 01/18 11:50 8.5ft 9s 7s 16 18 mph 1014.8mb 45f 37f
10:50 8ft 9s 7s 9 13 mph 1015.2mb 45f 41f
9:50 8.5ft 9s 7s 13 16 mph 1015.2mb 45f 41f
8:50 8ft 10s 7s 13 16 mph 1015.8mb 45f 42f
7:50 8.5ft 9s 7s 16 20 mph 1015.9mb 45f 41f
6:50 10ft 9s 7s 16 20 mph 1015.8mb 45f 41f
5:50 9.5ft 9s 7s 16 20 mph 1015.1mb 45f 42f
4:50 10ft 9s 7s 18 22 mph 1014.4mb 45f 42f
3:50 9ft 8s 6s 18 22 mph 1013.9mb 45f 41f
2:50 8ft 8s 6s 18 22 mph 1013.7mb 45f 41f
1:50 9ft 8s 6s 20 25 mph 1013.2mb 45f 40f
12:50 8ft 7s 6s 22 27 mph 1012.9mb 45f 40f
11:50 7ft 7s 5s 22 27 mph 1013mb 45f 41f
10:50 6ft 6s 5s 22 27 mph 1013.9mb 45f 41f
9:50 5ft 6s 5s 22 27 mph 1014.5mb 45f 41f
8:50 5ft 6s 5s 18 20 mph 1014.8mb 45f 41f
7:50 5ft 6s 5s 20 22 mph 1014.1mb 45f 40f
6:50 6ft 6s 5s 20 22 mph 1014.5mb 45f 39f
5:50 5.5ft 6s 5s 20 25 mph 1014.6mb 45f 40f
4:50 6ft 6s 5s 25 27 mph 1014.3mb 45f 39f
3:50 5ft 6s 5s 25 29 mph 1014.5mb 45f 39f
2:50 5.5ft 6s 5s 25 27 mph 1015.5mb 45f 39f
1:50 5ft 6s 5s 25 27 mph 1016.2mb 45f 39f
12:50 5ft 6s 5s 22 25 mph 1017.2mb 45f 40f
Ter 01/17 11:50 4.5ft 5s 4s 22 27 mph 1017.8mb 45f 40f
10:50 4.5ft 5s 4s 25 27 mph 1018.4mb 45f 39f
9:50 3.5ft 5s 4s 22 27 mph 1019.5mb 45f 39f
8:50 3.5ft 5s 4s 22 27 mph 1020mb 45f 40f
7:50 3.5ft 5s 4s 20 25 mph 1020.7mb 45f 40f